Metar z pełnej godziny Komunikat METAR ze strony awiacja.imgw.pl Metar G00 EPRZ METAR EPRZ 220600Z 22016KT CAVOK M01/M05 Q1026 =